KNE9125 HDAM-OEJN
Flight info
| Callsign | KNE9125 |
|---|---|
| Flight time | 1h 47m |
| Altitude | 38000 |
| Route | MANDA1P MANDA UR775 SB UV790 ULONI/N0461F390 G650 RASKA/N0458F380 T513 EGMEG |
| Aircraft | A339/H-SADE1E2E3GHIJ3J5M1P2RWXY/LB2D1 |
Departure
| Time | 2026-05-09 05:02 |
|---|---|
| Airport | Djibouti-Ambouli Airport (HDAM) |
Arrival
| Time | 2026-05-09 06:49 |
|---|---|
| Airport | King Abdulaziz International Airport (OEJN) |
| Time | Latitude | Longitude | Altitude | Speed | Heading |
|---|---|---|---|---|---|
| 2026-05-09 04:46 | 11.55146 | 43.14915 | 75 ft | 0 kts | 360° |
| 2026-05-09 04:53 | 11.55137 | 43.14915 | 75 ft | 2 kts | 360° |
| 2026-05-09 04:53 | 11.55122 | 43.14915 | 75 ft | 2 kts | 360° |
| 2026-05-09 04:53 | 11.55107 | 43.14915 | 75 ft | 2 kts | 360° |
| 2026-05-09 04:53 | 11.55092 | 43.14915 | 75 ft | 2 kts | 360° |
| 2026-05-09 04:54 | 11.55077 | 43.14915 | 75 ft | 2 kts | 360° |
| 2026-05-09 04:54 | 11.55062 | 43.14915 | 75 ft | 2 kts | 360° |
| 2026-05-09 04:54 | 11.55050 | 43.14915 | 75 ft | 0 kts | 360° |
| 2026-05-09 04:54 | 11.55038 | 43.14915 | 75 ft | 2 kts | 344° |
| 2026-05-09 04:55 | 11.55025 | 43.14922 | 75 ft | 2 kts | 320° |
| 2026-05-09 04:55 | 11.55014 | 43.14933 | 75 ft | 2 kts | 299° |
| 2026-05-09 04:55 | 11.55009 | 43.14947 | 75 ft | 2 kts | 277° |
| 2026-05-09 04:55 | 11.55008 | 43.14954 | 75 ft | 1 kts | 268° |
| 2026-05-09 04:56 | 11.55008 | 43.14957 | 75 ft | 0 kts | 269° |
| 2026-05-09 04:57 | 11.55008 | 43.14948 | 75 ft | 3 kts | 270° |
| 2026-05-09 04:58 | 11.55008 | 43.14911 | 75 ft | 6 kts | 270° |
| 2026-05-09 04:58 | 11.55009 | 43.14858 | 75 ft | 8 kts | 271° |
| 2026-05-09 04:58 | 11.55011 | 43.14791 | 75 ft | 10 kts | 271° |
| 2026-05-09 04:58 | 11.55012 | 43.14717 | 75 ft | 8 kts | 270° |
| 2026-05-09 04:59 | 11.55012 | 43.14659 | 75 ft | 8 kts | 270° |
| 2026-05-09 04:59 | 11.55013 | 43.14592 | 75 ft | 10 kts | 270° |
| 2026-05-09 04:59 | 11.54992 | 43.14542 | 76 ft | 5 kts | 201° |
| 2026-05-09 04:59 | 11.54951 | 43.14543 | 76 ft | 5 kts | 174° |
| 2026-05-09 05:00 | 11.54911 | 43.14547 | 76 ft | 6 kts | 174° |
| 2026-05-09 05:00 | 11.54867 | 43.14552 | 76 ft | 6 kts | 173° |
| 2026-05-09 05:00 | 11.54821 | 43.14558 | 76 ft | 6 kts | 173° |
| 2026-05-09 05:00 | 11.54783 | 43.14566 | 76 ft | 3 kts | 151° |
| 2026-05-09 05:01 | 11.54762 | 43.14586 | 76 ft | 5 kts | 123° |
| 2026-05-09 05:01 | 11.54753 | 43.14627 | 76 ft | 6 kts | 94° |
| 2026-05-09 05:01 | 11.54748 | 43.14791 | 75 ft | 52 kts | 90° |
| 2026-05-09 05:01 | 11.54742 | 43.15376 | 75 ft | 110 kts | 91° |
| 2026-05-09 05:02 | 11.54728 | 43.16331 | 80 ft | 156 kts | 91° |
| 2026-05-09 05:02 | 11.54705 | 43.17513 | 359 ft | 173 kts | 91° |
| 2026-05-09 05:02 | 11.54687 | 43.18727 | 990 ft | 170 kts | 86° |
| 2026-05-09 05:02 | 11.55122 | 43.19751 | 1714 ft | 162 kts | 40° |
| 2026-05-09 05:03 | 11.56169 | 43.20168 | 2115 ft | 171 kts | 5° |
| 2026-05-09 05:03 | 11.57413 | 43.20150 | 2371 ft | 186 kts | 1° |
| 2026-05-09 05:03 | 11.58762 | 43.20090 | 2634 ft | 201 kts | 1° |
| 2026-05-09 05:03 | 11.60220 | 43.20042 | 2909 ft | 217 kts | 1° |
| 2026-05-09 05:04 | 11.61792 | 43.20006 | 3207 ft | 234 kts | 1° |
| 2026-05-09 05:04 | 11.63504 | 43.19980 | 3525 ft | 252 kts | 1° |
| 2026-05-09 05:04 | 11.65313 | 43.19959 | 3856 ft | 269 kts | 1° |
| 2026-05-09 05:04 | 11.67199 | 43.19939 | 4426 ft | 275 kts | 1° |
| 2026-05-09 05:05 | 11.69118 | 43.19918 | 5090 ft | 276 kts | 1° |
| 2026-05-09 05:05 | 11.71065 | 43.19900 | 5727 ft | 279 kts | 1° |
| 2026-05-09 05:05 | 11.73010 | 43.19882 | 6331 ft | 282 kts | 1° |
| 2026-05-09 05:05 | 11.74979 | 43.19864 | 6945 ft | 284 kts | 1° |
| 2026-05-09 05:06 | 11.76949 | 43.19849 | 7591 ft | 285 kts | 1° |
| 2026-05-09 05:06 | 11.78927 | 43.19833 | 8257 ft | 286 kts | 0° |
| 2026-05-09 05:06 | 11.80931 | 43.19768 | 8908 ft | 288 kts | 352° |
| 2026-05-09 05:06 | 11.82793 | 43.19028 | 9523 ft | 293 kts | 325° |
| 2026-05-09 05:07 | 11.84234 | 43.17550 | 10189 ft | 296 kts | 311° |
| 2026-05-09 05:07 | 11.85556 | 43.15901 | 10576 ft | 309 kts | 311° |
| 2026-05-09 05:07 | 11.86943 | 43.14168 | 10860 ft | 325 kts | 311° |
| 2026-05-09 05:07 | 11.88433 | 43.12329 | 11267 ft | 336 kts | 311° |
| 2026-05-09 05:08 | 11.89933 | 43.10490 | 11891 ft | 340 kts | 312° |
| 2026-05-09 05:08 | 11.91442 | 43.08646 | 12547 ft | 343 kts | 312° |
| 2026-05-09 05:08 | 11.92990 | 43.06766 | 13189 ft | 346 kts | 314° |
| 2026-05-09 05:08 | 11.94772 | 43.05101 | 13798 ft | 347 kts | 327° |
| 2026-05-09 05:09 | 11.96849 | 43.03870 | 14398 ft | 347 kts | 338° |
| 2026-05-09 05:09 | 11.99070 | 43.02947 | 14962 ft | 350 kts | 341° |
| 2026-05-09 05:09 | 12.01353 | 43.02068 | 15525 ft | 352 kts | 340° |
| 2026-05-09 05:09 | 12.03673 | 43.01158 | 16024 ft | 357 kts | 340° |
| 2026-05-09 05:10 | 12.05999 | 43.00230 | 16517 ft | 360 kts | 339° |
| 2026-05-09 05:10 | 12.08358 | 42.99286 | 16999 ft | 364 kts | 339° |
| 2026-05-09 05:10 | 12.10732 | 42.98337 | 17469 ft | 367 kts | 339° |
| 2026-05-09 05:10 | 12.13116 | 42.97381 | 17937 ft | 371 kts | 339° |
| 2026-05-09 05:11 | 12.15543 | 42.96408 | 18387 ft | 376 kts | 339° |
| 2026-05-09 05:11 | 12.17987 | 42.95431 | 18822 ft | 380 kts | 339° |
| 2026-05-09 05:11 | 12.20470 | 42.94438 | 19266 ft | 385 kts | 339° |
| 2026-05-09 05:11 | 12.22980 | 42.93433 | 19702 ft | 389 kts | 339° |
| 2026-05-09 05:12 | 12.25508 | 42.92420 | 20141 ft | 393 kts | 339° |
| 2026-05-09 05:12 | 12.28079 | 42.91390 | 20574 ft | 397 kts | 339° |
| 2026-05-09 05:12 | 12.30661 | 42.90355 | 20983 ft | 401 kts | 339° |
| 2026-05-09 05:12 | 12.33301 | 42.89297 | 21409 ft | 404 kts | 338° |
| 2026-05-09 05:13 | 12.35932 | 42.88242 | 21824 ft | 408 kts | 338° |
| 2026-05-09 05:13 | 12.38577 | 42.87181 | 22230 ft | 411 kts | 338° |
| 2026-05-09 05:13 | 12.41258 | 42.86105 | 22633 ft | 415 kts | 338° |
| 2026-05-09 05:13 | 12.43956 | 42.85022 | 23060 ft | 417 kts | 338° |
| 2026-05-09 05:14 | 12.46694 | 42.83923 | 23483 ft | 420 kts | 338° |
| 2026-05-09 05:14 | 12.49434 | 42.82822 | 23918 ft | 422 kts | 338° |
| 2026-05-09 05:14 | 12.52174 | 42.81721 | 24349 ft | 425 kts | 338° |
| 2026-05-09 05:14 | 12.54910 | 42.80622 | 24753 ft | 427 kts | 338° |
| 2026-05-09 05:15 | 12.57714 | 42.79496 | 25148 ft | 430 kts | 338° |
| 2026-05-09 05:15 | 12.60523 | 42.78463 | 25545 ft | 432 kts | 341° |
| 2026-05-09 05:15 | 12.63424 | 42.77502 | 25945 ft | 435 kts | 341° |
| 2026-05-09 05:15 | 12.66309 | 42.76562 | 26335 ft | 437 kts | 341° |
| 2026-05-09 05:16 | 12.69212 | 42.75618 | 26718 ft | 439 kts | 341° |
| 2026-05-09 05:16 | 12.72146 | 42.74662 | 27103 ft | 441 kts | 341° |
| 2026-05-09 05:16 | 12.75091 | 42.73701 | 27474 ft | 443 kts | 341° |
| 2026-05-09 05:16 | 12.78041 | 42.72735 | 27843 ft | 445 kts | 341° |
| 2026-05-09 05:17 | 12.80974 | 42.71774 | 28196 ft | 447 kts | 341° |
| 2026-05-09 05:17 | 12.83962 | 42.70795 | 28551 ft | 449 kts | 340° |
| 2026-05-09 05:17 | 12.86959 | 42.69813 | 28897 ft | 452 kts | 340° |
| 2026-05-09 05:17 | 12.89975 | 42.68823 | 29230 ft | 454 kts | 340° |
| 2026-05-09 05:18 | 12.92962 | 42.67843 | 29554 ft | 457 kts | 340° |
| 2026-05-09 05:18 | 12.96008 | 42.66843 | 29886 ft | 459 kts | 340° |
| 2026-05-09 05:18 | 12.99084 | 42.65830 | 30221 ft | 460 kts | 339° |
| 2026-05-09 05:18 | 13.02075 | 42.64694 | 30547 ft | 461 kts | 335° |
| 2026-05-09 05:19 | 13.05032 | 42.63337 | 30867 ft | 462 kts | 331° |
| 2026-05-09 05:19 | 13.07868 | 42.61788 | 31163 ft | 464 kts | 327° |
| 2026-05-09 05:19 | 13.10607 | 42.60033 | 31466 ft | 464 kts | 323° |
| 2026-05-09 05:19 | 13.13226 | 42.58086 | 31756 ft | 465 kts | 319° |
| 2026-05-09 05:20 | 13.15765 | 42.56041 | 32045 ft | 467 kts | 319° |
| 2026-05-09 05:20 | 13.18302 | 42.53969 | 32331 ft | 469 kts | 319° |
| 2026-05-09 05:20 | 13.20872 | 42.51868 | 32619 ft | 471 kts | 319° |
| 2026-05-09 05:20 | 13.23441 | 42.49771 | 32930 ft | 473 kts | 319° |
| 2026-05-09 05:21 | 13.26033 | 42.47659 | 33327 ft | 473 kts | 319° |
| 2026-05-09 05:21 | 13.28646 | 42.45534 | 33813 ft | 471 kts | 319° |
| 2026-05-09 05:21 | 13.31187 | 42.43468 | 34273 ft | 469 kts | 319° |
| 2026-05-09 05:21 | 13.33758 | 42.41377 | 34642 ft | 470 kts | 319° |
| 2026-05-09 05:22 | 13.36303 | 42.39308 | 34941 ft | 471 kts | 319° |
| 2026-05-09 05:22 | 13.38885 | 42.37207 | 35216 ft | 473 kts | 319° |
| 2026-05-09 05:22 | 13.41483 | 42.35093 | 35502 ft | 474 kts | 319° |
| 2026-05-09 05:22 | 13.44079 | 42.32981 | 35784 ft | 475 kts | 318° |
| 2026-05-09 05:23 | 13.46668 | 42.30873 | 35881 ft | 477 kts | 318° |
| 2026-05-09 05:23 | 13.51879 | 42.26629 | 35883 ft | 478 kts | 318° |
| 2026-05-09 05:24 | 13.57084 | 42.22385 | 35885 ft | 478 kts | 318° |
| 2026-05-09 05:24 | 13.62304 | 42.18129 | 35889 ft | 478 kts | 318° |
| 2026-05-09 05:25 | 13.67492 | 42.13891 | 35892 ft | 477 kts | 318° |
| 2026-05-09 05:25 | 13.75261 | 42.07510 | 35888 ft | 476 kts | 318° |
| 2026-05-09 05:26 | 13.80436 | 42.03249 | 35888 ft | 473 kts | 318° |
| 2026-05-09 05:26 | 13.85568 | 41.99022 | 35883 ft | 472 kts | 318° |
| 2026-05-09 05:27 | 13.90708 | 41.94785 | 35886 ft | 472 kts | 318° |
| 2026-05-09 05:27 | 13.95862 | 41.90535 | 35884 ft | 472 kts | 317° |
| 2026-05-09 05:28 | 14.00975 | 41.86315 | 35888 ft | 472 kts | 318° |
| 2026-05-09 05:28 | 14.06134 | 41.82056 | 35883 ft | 472 kts | 317° |
| 2026-05-09 05:29 | 14.11251 | 41.77829 | 35888 ft | 471 kts | 317° |
| 2026-05-09 05:29 | 14.16363 | 41.73602 | 35900 ft | 471 kts | 317° |
| 2026-05-09 05:30 | 14.21494 | 41.69358 | 35901 ft | 471 kts | 317° |
| 2026-05-09 05:30 | 14.26599 | 41.65133 | 35901 ft | 470 kts | 317° |
| 2026-05-09 05:31 | 14.31718 | 41.60893 | 35902 ft | 471 kts | 317° |
| 2026-05-09 05:31 | 14.36840 | 41.56649 | 35906 ft | 471 kts | 317° |
| 2026-05-09 05:32 | 14.41948 | 41.52417 | 35904 ft | 470 kts | 317° |
| 2026-05-09 05:32 | 14.47040 | 41.48195 | 35902 ft | 470 kts | 317° |
| 2026-05-09 05:33 | 14.52137 | 41.43963 | 35905 ft | 470 kts | 317° |
| 2026-05-09 05:33 | 14.57250 | 41.39714 | 35904 ft | 470 kts | 317° |
| 2026-05-09 05:34 | 14.62341 | 41.35482 | 35903 ft | 470 kts | 317° |
| 2026-05-09 05:34 | 14.67415 | 41.31263 | 35902 ft | 470 kts | 317° |
| 2026-05-09 05:35 | 14.72513 | 41.27020 | 35897 ft | 469 kts | 317° |
| 2026-05-09 05:35 | 14.77619 | 41.22766 | 35895 ft | 469 kts | 317° |
| 2026-05-09 05:36 | 14.82684 | 41.18544 | 35896 ft | 469 kts | 317° |
| 2026-05-09 05:36 | 14.87786 | 41.14288 | 35897 ft | 470 kts | 317° |
| 2026-05-09 05:37 | 14.92890 | 41.10029 | 35888 ft | 470 kts | 316° |
| 2026-05-09 05:37 | 14.97974 | 41.05779 | 35881 ft | 469 kts | 316° |
| 2026-05-09 05:38 | 15.03056 | 41.01534 | 35877 ft | 469 kts | 316° |
| 2026-05-09 05:38 | 15.08140 | 40.97290 | 35877 ft | 468 kts | 316° |
| 2026-05-09 05:39 | 15.13226 | 40.93035 | 35875 ft | 468 kts | 316° |
| 2026-05-09 05:40 | 15.23646 | 40.84303 | 35875 ft | 469 kts | 316° |
| 2026-05-09 05:40 | 15.28711 | 40.80053 | 35875 ft | 468 kts | 316° |
| 2026-05-09 05:41 | 15.33767 | 40.75808 | 35876 ft | 468 kts | 316° |
| 2026-05-09 05:41 | 15.38859 | 40.71529 | 35876 ft | 467 kts | 316° |
| 2026-05-09 05:42 | 15.43896 | 40.67296 | 35881 ft | 467 kts | 316° |
| 2026-05-09 05:42 | 15.48959 | 40.63037 | 35884 ft | 466 kts | 316° |
| 2026-05-09 05:43 | 15.54002 | 40.58790 | 35890 ft | 466 kts | 316° |
| 2026-05-09 05:43 | 15.59048 | 40.54540 | 35896 ft | 465 kts | 315° |
| 2026-05-09 05:44 | 15.64067 | 40.50310 | 35897 ft | 466 kts | 315° |
| 2026-05-09 05:44 | 15.69120 | 40.46047 | 35897 ft | 465 kts | 315° |
| 2026-05-09 05:45 | 15.74132 | 40.41816 | 35898 ft | 465 kts | 315° |
| 2026-05-09 05:45 | 15.79157 | 40.37573 | 35897 ft | 465 kts | 315° |
| 2026-05-09 05:46 | 15.84148 | 40.33356 | 35894 ft | 464 kts | 315° |
| 2026-05-09 05:46 | 15.89188 | 40.29094 | 35887 ft | 463 kts | 315° |
| 2026-05-09 05:47 | 15.94174 | 40.24874 | 35881 ft | 462 kts | 315° |
| 2026-05-09 05:47 | 15.99162 | 40.20647 | 35883 ft | 463 kts | 315° |
| 2026-05-09 05:48 | 16.04153 | 40.16420 | 35883 ft | 463 kts | 315° |
| 2026-05-09 05:48 | 16.09132 | 40.12198 | 35882 ft | 463 kts | 315° |
| 2026-05-09 05:49 | 16.14126 | 40.07961 | 35879 ft | 463 kts | 315° |
| 2026-05-09 05:49 | 16.19120 | 40.03720 | 35880 ft | 462 kts | 315° |
| 2026-05-09 05:50 | 16.24125 | 39.99467 | 35877 ft | 462 kts | 314° |
| 2026-05-09 05:50 | 16.29075 | 39.95257 | 35882 ft | 462 kts | 315° |
| 2026-05-09 05:51 | 16.34066 | 39.91011 | 35879 ft | 461 kts | 315° |
| 2026-05-09 05:51 | 16.39033 | 39.86784 | 35882 ft | 461 kts | 314° |
| 2026-05-09 05:52 | 16.43994 | 39.82557 | 35880 ft | 461 kts | 314° |
| 2026-05-09 05:52 | 16.48958 | 39.78323 | 35879 ft | 463 kts | 314° |
| 2026-05-09 05:53 | 16.53949 | 39.74066 | 35879 ft | 462 kts | 314° |
| 2026-05-09 05:53 | 16.58937 | 39.69807 | 35882 ft | 462 kts | 314° |
| 2026-05-09 05:54 | 16.63887 | 39.65576 | 35878 ft | 462 kts | 314° |
| 2026-05-09 05:54 | 16.68857 | 39.61329 | 35878 ft | 462 kts | 314° |
| 2026-05-09 05:55 | 16.73852 | 39.57055 | 35874 ft | 461 kts | 314° |
| 2026-05-09 05:55 | 16.78821 | 39.52800 | 35876 ft | 460 kts | 314° |
| 2026-05-09 05:56 | 16.83753 | 39.48577 | 35878 ft | 461 kts | 314° |
| 2026-05-09 05:56 | 16.88702 | 39.44334 | 35874 ft | 461 kts | 314° |
| 2026-05-09 05:57 | 16.93666 | 39.40073 | 35881 ft | 462 kts | 314° |
| 2026-05-09 05:57 | 16.98626 | 39.35817 | 35886 ft | 461 kts | 314° |
| 2026-05-09 05:58 | 17.03589 | 39.31549 | 35887 ft | 461 kts | 314° |
| 2026-05-09 05:58 | 17.08557 | 39.27275 | 35886 ft | 461 kts | 314° |
| 2026-05-09 05:59 | 17.13483 | 39.23038 | 35887 ft | 461 kts | 314° |
| 2026-05-09 05:59 | 17.18456 | 39.18754 | 35884 ft | 461 kts | 314° |
| 2026-05-09 06:00 | 17.23383 | 39.14510 | 35884 ft | 461 kts | 314° |
| 2026-05-09 06:00 | 17.28328 | 39.10242 | 35883 ft | 459 kts | 314° |
| 2026-05-09 06:01 | 17.33245 | 39.05994 | 35878 ft | 460 kts | 314° |
| 2026-05-09 06:01 | 17.38484 | 39.02036 | 35879 ft | 469 kts | 324° |
| 2026-05-09 06:02 | 17.44523 | 38.99343 | 35879 ft | 478 kts | 339° |
| 2026-05-09 06:02 | 17.51149 | 38.98164 | 35878 ft | 488 kts | 353° |
| 2026-05-09 06:03 | 17.57987 | 38.98290 | 35888 ft | 490 kts | 358° |
| 2026-05-09 06:03 | 17.64809 | 38.98595 | 35891 ft | 490 kts | 358° |
| 2026-05-09 06:04 | 17.71649 | 38.98869 | 35892 ft | 491 kts | 358° |
| 2026-05-09 06:04 | 17.78499 | 38.99124 | 35893 ft | 490 kts | 358° |
| 2026-05-09 06:05 | 17.85283 | 38.99367 | 35895 ft | 490 kts | 358° |
| 2026-05-09 06:05 | 17.92107 | 38.99614 | 35900 ft | 489 kts | 358° |
| 2026-05-09 06:06 | 17.98962 | 38.99862 | 35897 ft | 490 kts | 358° |
| 2026-05-09 06:06 | 18.05791 | 39.00107 | 35900 ft | 490 kts | 358° |
| 2026-05-09 06:07 | 18.12598 | 39.00352 | 35886 ft | 490 kts | 358° |
| 2026-05-09 06:07 | 18.19410 | 39.00624 | 35880 ft | 490 kts | 359° |
| 2026-05-09 06:08 | 18.26256 | 39.01006 | 35878 ft | 492 kts | 359° |
| 2026-05-09 06:08 | 18.33104 | 39.01400 | 35881 ft | 492 kts | 359° |
| 2026-05-09 06:09 | 18.39978 | 39.01786 | 35879 ft | 492 kts | 359° |
| 2026-05-09 06:09 | 18.46786 | 39.02163 | 35878 ft | 493 kts | 359° |
| 2026-05-09 06:10 | 18.53660 | 39.02544 | 35879 ft | 492 kts | 359° |
| 2026-05-09 06:10 | 18.60540 | 39.02924 | 35880 ft | 493 kts | 359° |
| 2026-05-09 06:11 | 18.67414 | 39.03306 | 35879 ft | 494 kts | 359° |
| 2026-05-09 06:11 | 18.74254 | 39.03686 | 35876 ft | 493 kts | 359° |
| 2026-05-09 06:12 | 18.81165 | 39.04068 | 35870 ft | 493 kts | 359° |
| 2026-05-09 06:12 | 18.87996 | 39.04446 | 35856 ft | 494 kts | 359° |
| 2026-05-09 06:13 | 18.94894 | 39.04831 | 35853 ft | 496 kts | 359° |
| 2026-05-09 06:13 | 19.01824 | 39.05218 | 35855 ft | 495 kts | 359° |
| 2026-05-09 06:14 | 19.08677 | 39.05363 | 35855 ft | 492 kts | 354° |
| 2026-05-09 06:14 | 19.15524 | 39.04685 | 35859 ft | 490 kts | 346° |
| 2026-05-09 06:15 | 19.22142 | 39.03176 | 35858 ft | 487 kts | 340° |
| 2026-05-09 06:15 | 19.28693 | 39.01289 | 35857 ft | 489 kts | 339° |
| 2026-05-09 06:16 | 19.35265 | 38.99389 | 35860 ft | 488 kts | 339° |
| 2026-05-09 06:16 | 19.41830 | 38.97505 | 35724 ft | 487 kts | 339° |
| 2026-05-09 06:17 | 19.45093 | 38.96569 | 34943 ft | 493 kts | 339° |
| 2026-05-09 06:17 | 19.48454 | 38.95604 | 33838 ft | 502 kts | 340° |
| 2026-05-09 06:17 | 19.51826 | 38.94636 | 33011 ft | 505 kts | 340° |
| 2026-05-09 06:17 | 19.55202 | 38.93671 | 32430 ft | 505 kts | 340° |
| 2026-05-09 06:18 | 19.58607 | 38.92695 | 31917 ft | 503 kts | 341° |
| 2026-05-09 06:18 | 19.61992 | 38.91727 | 31450 ft | 499 kts | 341° |
| 2026-05-09 06:18 | 19.65311 | 38.90779 | 31000 ft | 495 kts | 341° |
| 2026-05-09 06:18 | 19.68609 | 38.89835 | 30663 ft | 489 kts | 342° |
| 2026-05-09 06:19 | 19.71909 | 38.88893 | 30402 ft | 480 kts | 342° |
| 2026-05-09 06:19 | 19.75070 | 38.87990 | 30147 ft | 472 kts | 342° |
| 2026-05-09 06:19 | 19.78250 | 38.87079 | 29878 ft | 464 kts | 342° |
| 2026-05-09 06:19 | 19.81346 | 38.86190 | 29614 ft | 456 kts | 343° |
| 2026-05-09 06:20 | 19.84364 | 38.85324 | 29347 ft | 449 kts | 343° |
| 2026-05-09 06:20 | 19.87356 | 38.84465 | 29070 ft | 441 kts | 343° |
| 2026-05-09 06:20 | 19.90318 | 38.83615 | 28799 ft | 434 kts | 343° |
| 2026-05-09 06:20 | 19.93196 | 38.82786 | 28539 ft | 430 kts | 344° |
| 2026-05-09 06:21 | 19.96116 | 38.81945 | 28275 ft | 429 kts | 344° |
| 2026-05-09 06:21 | 19.98966 | 38.81127 | 28003 ft | 427 kts | 345° |
| 2026-05-09 06:21 | 20.01835 | 38.80302 | 27692 ft | 425 kts | 345° |
| 2026-05-09 06:21 | 20.04702 | 38.79479 | 27362 ft | 423 kts | 345° |
| 2026-05-09 06:22 | 20.07560 | 38.78657 | 27017 ft | 420 kts | 345° |
| 2026-05-09 06:22 | 20.10358 | 38.77853 | 26670 ft | 418 kts | 345° |
| 2026-05-09 06:22 | 20.13178 | 38.77042 | 26307 ft | 415 kts | 345° |
| 2026-05-09 06:22 | 20.15933 | 38.76248 | 25949 ft | 413 kts | 345° |
| 2026-05-09 06:23 | 20.18712 | 38.75447 | 25593 ft | 410 kts | 345° |
| 2026-05-09 06:23 | 20.21460 | 38.74654 | 25242 ft | 407 kts | 345° |
| 2026-05-09 06:23 | 20.24172 | 38.73872 | 24890 ft | 404 kts | 346° |
| 2026-05-09 06:23 | 20.26891 | 38.73087 | 24538 ft | 402 kts | 346° |
| 2026-05-09 06:24 | 20.29604 | 38.72305 | 24179 ft | 399 kts | 346° |
| 2026-05-09 06:24 | 20.32264 | 38.71537 | 23829 ft | 396 kts | 346° |
| 2026-05-09 06:24 | 20.34924 | 38.70766 | 23486 ft | 394 kts | 346° |
| 2026-05-09 06:24 | 20.37417 | 38.70047 | 23164 ft | 391 kts | 346° |
| 2026-05-09 06:25 | 20.40032 | 38.69292 | 22813 ft | 389 kts | 346° |
| 2026-05-09 06:25 | 20.42654 | 38.68535 | 22462 ft | 386 kts | 346° |
| 2026-05-09 06:25 | 20.45251 | 38.67783 | 22113 ft | 384 kts | 346° |
| 2026-05-09 06:25 | 20.47821 | 38.67041 | 21758 ft | 382 kts | 346° |
| 2026-05-09 06:26 | 20.50373 | 38.66303 | 21391 ft | 379 kts | 346° |
| 2026-05-09 06:26 | 20.52936 | 38.65560 | 21029 ft | 376 kts | 346° |
| 2026-05-09 06:26 | 20.55432 | 38.64837 | 20671 ft | 374 kts | 346° |
| 2026-05-09 06:26 | 20.57939 | 38.64111 | 20311 ft | 372 kts | 346° |
| 2026-05-09 06:27 | 20.60450 | 38.63383 | 19946 ft | 370 kts | 346° |
| 2026-05-09 06:27 | 20.62929 | 38.62664 | 19586 ft | 367 kts | 346° |
| 2026-05-09 06:27 | 20.65380 | 38.61953 | 19227 ft | 365 kts | 346° |
| 2026-05-09 06:27 | 20.67859 | 38.61232 | 18875 ft | 363 kts | 346° |
| 2026-05-09 06:28 | 20.70290 | 38.60527 | 18519 ft | 361 kts | 346° |
| 2026-05-09 06:28 | 20.72716 | 38.59821 | 18164 ft | 359 kts | 346° |
| 2026-05-09 06:28 | 20.75144 | 38.59115 | 17813 ft | 357 kts | 346° |
| 2026-05-09 06:28 | 20.77540 | 38.58419 | 17472 ft | 356 kts | 346° |
| 2026-05-09 06:29 | 20.79922 | 38.57737 | 17120 ft | 354 kts | 348° |
| 2026-05-09 06:29 | 20.82351 | 38.57579 | 16734 ft | 351 kts | 10° |
| 2026-05-09 06:29 | 20.84647 | 38.58426 | 16371 ft | 348 kts | 32° |
| 2026-05-09 06:29 | 20.86478 | 38.60079 | 16003 ft | 346 kts | 52° |
| 2026-05-09 06:30 | 20.87632 | 38.62297 | 15638 ft | 344 kts | 72° |
| 2026-05-09 06:30 | 20.88303 | 38.64743 | 15298 ft | 342 kts | 76° |
| 2026-05-09 06:30 | 20.88936 | 38.67193 | 14949 ft | 342 kts | 76° |
| 2026-05-09 06:30 | 20.89580 | 38.69643 | 14603 ft | 342 kts | 76° |
| 2026-05-09 06:31 | 20.90231 | 38.72076 | 14259 ft | 342 kts | 76° |
| 2026-05-09 06:31 | 20.90888 | 38.74514 | 13918 ft | 341 kts | 76° |
| 2026-05-09 06:31 | 20.91549 | 38.76945 | 13537 ft | 342 kts | 77° |
| 2026-05-09 06:31 | 20.92219 | 38.79406 | 13143 ft | 343 kts | 77° |
| 2026-05-09 06:32 | 20.92882 | 38.81852 | 12774 ft | 343 kts | 76° |
| 2026-05-09 06:32 | 20.93538 | 38.84268 | 12442 ft | 342 kts | 76° |
| 2026-05-09 06:32 | 20.94203 | 38.86710 | 12136 ft | 339 kts | 76° |
| 2026-05-09 06:33 | 20.95518 | 38.91528 | 11488 ft | 336 kts | 75° |
| 2026-05-09 06:33 | 20.96168 | 38.93918 | 11208 ft | 333 kts | 75° |
| 2026-05-09 06:33 | 20.96891 | 38.96256 | 10915 ft | 331 kts | 71° |
| 2026-05-09 06:34 | 20.99442 | 39.02702 | 10910 ft | 293 kts | 68° |
| 2026-05-09 06:34 | 21.00240 | 39.04683 | 10873 ft | 283 kts | 68° |
| 2026-05-09 06:34 | 21.01012 | 39.06610 | 10672 ft | 279 kts | 68° |
| 2026-05-09 06:35 | 21.01767 | 39.08500 | 10535 ft | 274 kts | 68° |
| 2026-05-09 06:35 | 21.02503 | 39.10341 | 10364 ft | 271 kts | 68° |
| 2026-05-09 06:35 | 21.03247 | 39.12205 | 10201 ft | 267 kts | 68° |
| 2026-05-09 06:35 | 21.03963 | 39.13999 | 9948 ft | 263 kts | 68° |
| 2026-05-09 06:36 | 21.04680 | 39.15801 | 9625 ft | 264 kts | 68° |
| 2026-05-09 06:36 | 21.05397 | 39.17594 | 9370 ft | 263 kts | 68° |
| 2026-05-09 06:36 | 21.06118 | 39.19402 | 9157 ft | 260 kts | 68° |
| 2026-05-09 06:36 | 21.06822 | 39.21169 | 8995 ft | 257 kts | 68° |
| 2026-05-09 06:37 | 21.07514 | 39.22904 | 8803 ft | 253 kts | 68° |
| 2026-05-09 06:37 | 21.08210 | 39.24636 | 8654 ft | 250 kts | 65° |
| 2026-05-09 06:37 | 21.09300 | 39.26050 | 8457 ft | 249 kts | 30° |
| 2026-05-09 06:37 | 21.10956 | 39.26597 | 8189 ft | 253 kts | 11° |
| 2026-05-09 06:38 | 21.12712 | 39.26893 | 7832 ft | 257 kts | 11° |
| 2026-05-09 06:38 | 21.14480 | 39.27202 | 7527 ft | 259 kts | 11° |
| 2026-05-09 06:38 | 21.16267 | 39.27529 | 7384 ft | 255 kts | 12° |
| 2026-05-09 06:38 | 21.18000 | 39.27856 | 7074 ft | 251 kts | 12° |
| 2026-05-09 06:39 | 21.19729 | 39.28184 | 6628 ft | 253 kts | 12° |
| 2026-05-09 06:39 | 21.21479 | 39.28524 | 6231 ft | 255 kts | 12° |
| 2026-05-09 06:39 | 21.23212 | 39.28861 | 5873 ft | 254 kts | 12° |
| 2026-05-09 06:39 | 21.24933 | 39.29194 | 5730 ft | 250 kts | 12° |
| 2026-05-09 06:40 | 21.26646 | 39.29500 | 5438 ft | 247 kts | 5° |
| 2026-05-09 06:40 | 21.28357 | 39.29277 | 5073 ft | 247 kts | 343° |
| 2026-05-09 06:40 | 21.29975 | 39.28648 | 5004 ft | 248 kts | 342° |
| 2026-05-09 06:40 | 21.31599 | 39.27986 | 4932 ft | 251 kts | 342° |
| 2026-05-09 06:41 | 21.33247 | 39.27318 | 4678 ft | 250 kts | 342° |
| 2026-05-09 06:41 | 21.34853 | 39.26674 | 4389 ft | 243 kts | 342° |
| 2026-05-09 06:41 | 21.36411 | 39.26054 | 4194 ft | 237 kts | 343° |
| 2026-05-09 06:41 | 21.37956 | 39.25444 | 4042 ft | 233 kts | 343° |
| 2026-05-09 06:42 | 21.39484 | 39.24841 | 3891 ft | 229 kts | 343° |
| 2026-05-09 06:42 | 21.40960 | 39.24259 | 3680 ft | 224 kts | 343° |
| 2026-05-09 06:42 | 21.42403 | 39.23689 | 3410 ft | 218 kts | 343° |
| 2026-05-09 06:42 | 21.43817 | 39.23133 | 3157 ft | 210 kts | 344° |
| 2026-05-09 06:43 | 21.45123 | 39.22613 | 3118 ft | 191 kts | 344° |
| 2026-05-09 06:43 | 21.46327 | 39.22135 | 3095 ft | 174 kts | 344° |
| 2026-05-09 06:43 | 21.47431 | 39.21698 | 3114 ft | 167 kts | 345° |
| 2026-05-09 06:43 | 21.48510 | 39.21275 | 3097 ft | 163 kts | 345° |
| 2026-05-09 06:44 | 21.49546 | 39.20866 | 3024 ft | 155 kts | 345° |
| 2026-05-09 06:44 | 21.50558 | 39.20475 | 2840 ft | 149 kts | 345° |
| 2026-05-09 06:44 | 21.51524 | 39.20101 | 2714 ft | 146 kts | 345° |
| 2026-05-09 06:44 | 21.52465 | 39.19734 | 2705 ft | 143 kts | 345° |
| 2026-05-09 06:45 | 21.53399 | 39.19368 | 2705 ft | 142 kts | 345° |
| 2026-05-09 06:45 | 21.54340 | 39.18997 | 2567 ft | 143 kts | 344° |
| 2026-05-09 06:45 | 21.55273 | 39.18626 | 2389 ft | 140 kts | 344° |
| 2026-05-09 06:45 | 21.56180 | 39.18266 | 2212 ft | 138 kts | 344° |
| 2026-05-09 06:46 | 21.57076 | 39.17910 | 2036 ft | 135 kts | 344° |
| 2026-05-09 06:46 | 21.57954 | 39.17562 | 1863 ft | 134 kts | 344° |
| 2026-05-09 06:46 | 21.58831 | 39.17215 | 1695 ft | 133 kts | 343° |
| 2026-05-09 06:46 | 21.59703 | 39.16869 | 1527 ft | 131 kts | 343° |
| 2026-05-09 06:47 | 21.60558 | 39.16531 | 1359 ft | 132 kts | 343° |
| 2026-05-09 06:47 | 21.61426 | 39.16187 | 1191 ft | 132 kts | 343° |
| 2026-05-09 06:47 | 21.62285 | 39.15847 | 1026 ft | 132 kts | 343° |
| 2026-05-09 06:47 | 21.63153 | 39.15504 | 858 ft | 132 kts | 342° |
| 2026-05-09 06:48 | 21.64023 | 39.15160 | 688 ft | 133 kts | 342° |
| 2026-05-09 06:48 | 21.64905 | 39.14810 | 514 ft | 133 kts | 342° |
| 2026-05-09 06:48 | 21.65769 | 39.14469 | 348 ft | 133 kts | 341° |
| 2026-05-09 06:48 | 21.66645 | 39.14120 | 173 ft | 133 kts | 341° |
| 2026-05-09 06:49 | 21.67507 | 39.13773 | 63 ft | 127 kts | 340° |
| 2026-05-09 06:49 | 21.68241 | 39.13493 | 62 ft | 86 kts | 337° |
| 2026-05-09 06:49 | 21.68630 | 39.13338 | 62 ft | 34 kts | 339° |
| 2026-05-09 06:49 | 21.68791 | 39.13276 | 62 ft | 22 kts | 340° |
| 2026-05-09 06:50 | 21.68933 | 39.13222 | 62 ft | 19 kts | 341° |
| 2026-05-09 06:50 | 21.69061 | 39.13194 | 62 ft | 17 kts | 358° |
| 2026-05-09 06:50 | 21.69167 | 39.13204 | 62 ft | 10 kts | 8° |
| 2026-05-09 06:50 | 21.69233 | 39.13215 | 62 ft | 10 kts | 8° |
| 2026-05-09 06:51 | 21.69305 | 39.13235 | 62 ft | 10 kts | 30° |
| 2026-05-09 06:51 | 21.69359 | 39.13295 | 62 ft | 11 kts | 62° |
| 2026-05-09 06:51 | 21.69388 | 39.13373 | 62 ft | 9 kts | 69° |
| 2026-05-09 06:51 | 21.69409 | 39.13435 | 62 ft | 8 kts | 68° |
| 2026-05-09 06:52 | 21.69450 | 39.13462 | 62 ft | 7 kts | 358° |
| 2026-05-09 06:52 | 21.69503 | 39.13444 | 62 ft | 8 kts | 341° |
| 2026-05-09 06:52 | 21.69546 | 39.13438 | 62 ft | 2 kts | 33° |
| 2026-05-09 06:52 | 21.69560 | 39.13469 | 62 ft | 5 kts | 65° |
| 2026-05-09 06:53 | 21.69576 | 39.13510 | 62 ft | 4 kts | 69° |
| 2026-05-09 06:53 | 21.69582 | 39.13530 | 62 ft | 0 kts | 69° |